LPA weather

Gran Canaria Airport
Gran Canaria Island, Canary Islands, Spain

Public forecast

Using degrees Celsius for public forecast. Weather courtesy of forecast.io.

METAR (pilot weather report)

Retrieved 2019/02/21 07:30 UTC (24 minutes ago):

GCLP 210730Z 21003KT 160V240 9999 SCT020 BKN028 16/13 Q1020 NOSIG

TAF (pilot weather forecast)

Retrieved 2019/02/21 03:32 UTC (4 hours ago):

TAF GCLP 210200Z 2103/2203 30005KT 9999 SCT025 TX23/2114Z TN15/2106Z BECMG 2109/2111 13010KT BECMG 2119/2121 VRB05KT